createdAt,value
2023-03-03T00:00:26.390Z,77.04
2023-03-03T00:01:53.882Z,77.10
2023-03-03T00:03:17.835Z,76.92
2023-03-03T00:04:53.811Z,76.98
2023-03-03T00:06:38.798Z,76.93
2023-03-03T00:08:02.785Z,76.60
2023-03-03T00:09:36.747Z,76.57
2023-03-03T00:11:06.097Z,76.50
2023-03-03T00:12:30.279Z,76.62
2023-03-03T00:13:59.520Z,76.56
2023-03-03T00:15:21.252Z,76.47
2023-03-03T00:16:56.726Z,76.25
2023-03-03T00:18:18.276Z,76.44
2023-03-03T00:20:00.773Z,76.45
2023-03-03T00:21:37.434Z,76.37
2023-03-03T00:23:12.915Z,76.33
2023-03-03T00:24:57.646Z,76.35
2023-03-03T00:26:51.726Z,76.44
2023-03-03T00:28:25.726Z,76.28
2023-03-03T00:29:54.956Z,76.29
2023-03-03T00:31:19.198Z,76.32
2023-03-03T00:32:56.115Z,76.23
2023-03-03T00:34:42.343Z,76.21
2023-03-03T00:36:27.487Z,76.15
2023-03-03T00:38:04.377Z,75.78
2023-03-03T00:39:28.287Z,75.91
2023-03-03T00:41:14.860Z,75.95
2023-03-03T00:42:48.351Z,75.84
2023-03-03T00:44:33.127Z,75.85
2023-03-03T00:45:55.341Z,75.58
2023-03-03T00:47:41.765Z,76.08
2023-03-03T00:49:22.827Z,75.97
2023-03-03T00:50:47.339Z,75.76
2023-03-03T00:52:32.835Z,76.04
2023-03-03T00:54:25.092Z,76.03
2023-03-03T00:56:05.904Z,75.88
2023-03-03T00:57:39.645Z,75.82
2023-03-03T00:59:24.678Z,75.69
2023-03-03T01:00:58.698Z,75.80
2023-03-03T01:02:57.367Z,75.68
2023-03-03T01:04:49.568Z,75.82
2023-03-03T01:06:22.692Z,75.60
2023-03-03T01:08:08.825Z,75.62
2023-03-03T01:09:43.446Z,75.62
2023-03-03T01:11:31.726Z,75.52
2023-03-03T01:13:07.796Z,75.45
2023-03-03T01:15:02.711Z,75.39
2023-03-03T01:16:47.777Z,75.68
2023-03-03T01:18:28.863Z,75.83
2023-03-03T01:20:13.566Z,75.86
2023-03-03T01:21:56.046Z,75.56
2023-03-03T01:23:41.770Z,75.82
2023-03-03T01:25:15.783Z,75.66
2023-03-03T01:26:49.453Z,75.57
2023-03-03T01:28:15.771Z,75.40
2023-03-03T01:30:01.093Z,75.26
2023-03-03T01:31:34.898Z,75.23
2023-03-03T01:33:11.292Z,75.14
2023-03-03T01:34:52.091Z,75.08
2023-03-03T01:36:37.119Z,74.89
2023-03-03T01:38:10.366Z,75.06
2023-03-03T01:39:32.245Z,74.85
2023-03-03T01:40:56.648Z,74.81
2023-03-03T01:42:30.307Z,74.93
2023-03-03T01:44:15.922Z,74.88
2023-03-03T01:45:58.087Z,74.65
2023-03-03T01:47:43.409Z,74.78
2023-03-03T01:49:17.526Z,74.98
2023-03-03T01:50:51.283Z,74.86
2023-03-03T01:52:27.315Z,75.04
2023-03-03T01:54:12.880Z,74.96
2023-03-03T01:55:54.269Z,74.85
2023-03-03T01:57:27.687Z,74.75
2023-03-03T01:59:13.156Z,74.81
2023-03-03T02:00:47.529Z,74.88
2023-03-03T02:02:12.968Z,74.86
2023-03-03T02:04:01.648Z,74.81
2023-03-03T02:05:49.122Z,74.97
2023-03-03T02:07:34.097Z,74.96
2023-03-03T02:09:07.635Z,74.98
2023-03-03T02:11:01.280Z,75.00
2023-03-03T02:12:50.602Z,75.09
2023-03-03T02:14:26.024Z,75.16
2023-03-03T02:16:02.228Z,75.05
2023-03-03T02:17:47.361Z,75.04
2023-03-03T02:19:11.380Z,74.76
2023-03-03T02:20:56.789Z,74.61
2023-03-03T02:22:30.210Z,74.71
2023-03-03T02:24:24.684Z,74.78
2023-03-03T02:26:12.124Z,74.38
2023-03-03T02:28:06.669Z,74.52
2023-03-03T02:29:52.280Z,74.70
2023-03-03T02:31:45.847Z,74.58
2023-03-03T02:33:21.882Z,74.32
2023-03-03T02:34:50.915Z,74.46
2023-03-03T02:36:15.062Z,74.65
2023-03-03T02:40:01.803Z,74.85
2023-03-03T02:41:55.696Z,74.79
2023-03-03T02:43:43.565Z,74.72
2023-03-03T02:45:36.943Z,74.90
2023-03-03T02:47:12.636Z,74.93
2023-03-03T02:48:46.620Z,75.02
2023-03-03T02:50:15.838Z,75.18
2023-03-03T02:51:55.778Z,75.21
2023-03-03T02:53:31.965Z,75.04
2023-03-03T02:55:17.620Z,75.14
2023-03-03T02:56:53.276Z,74.94
2023-03-03T02:58:48.677Z,75.04
2023-03-03T03:00:22.038Z,74.85
2023-03-03T03:02:07.714Z,74.81
2023-03-03T03:03:38.055Z,74.96
2023-03-03T03:05:14.647Z,75.13
2023-03-03T03:06:51.028Z,74.89
2023-03-03T03:08:19.963Z,74.65
2023-03-03T03:09:55.814Z,74.98
2023-03-03T03:11:43.232Z,75.31
2023-03-03T03:13:37.656Z,75.21
2023-03-03T03:15:32.724Z,75.28
2023-03-03T03:17:13.899Z,75.53
2023-03-03T03:19:08.700Z,75.34
2023-03-03T03:20:50.227Z,75.41
2023-03-03T03:22:47.769Z,75.40
2023-03-03T03:24:20.817Z,75.56
2023-03-03T03:26:11.671Z,75.48
2023-03-03T03:27:59.296Z,75.48
2023-03-03T03:29:35.729Z,75.35
2023-03-03T03:31:10.684Z,75.26
2023-03-03T03:32:47.079Z,75.37
2023-03-03T03:34:41.652Z,75.59
2023-03-03T03:36:14.222Z,75.43
2023-03-03T03:38:01.770Z,75.75
2023-03-03T03:39:42.848Z,75.76
2023-03-03T03:41:27.995Z,75.72
2023-03-03T03:43:14.151Z,75.73
2023-03-03T03:44:59.511Z,75.54
2023-03-03T03:46:50.708Z,75.53
2023-03-03T03:48:19.963Z,75.36
2023-03-03T03:49:56.135Z,75.45
2023-03-03T03:51:42.260Z,75.20
2023-03-03T03:53:17.867Z,75.34
2023-03-03T03:54:43.204Z,75.55
2023-03-03T03:56:37.777Z,75.48
2023-03-03T03:58:32.669Z,75.56
2023-03-03T04:00:22.324Z,75.80
2023-03-03T04:02:07.431Z,75.97
2023-03-03T04:04:02.748Z,76.03
2023-03-03T04:05:36.177Z,75.92
2023-03-03T04:07:12.193Z,75.95
2023-03-03T04:08:54.180Z,75.66
2023-03-03T04:10:28.470Z,75.80
2023-03-03T04:12:02.903Z,75.77
2023-03-03T04:13:40.599Z,75.90
2023-03-03T04:15:25.705Z,76.16
2023-03-03T04:16:49.375Z,75.84
2023-03-03T04:18:26.035Z,76.18
2023-03-03T04:20:02.284Z,76.30
2023-03-03T04:21:44.009Z,76.02
2023-03-03T04:23:17.623Z,75.89
2023-03-03T04:25:03.120Z,75.52
2023-03-03T04:26:56.888Z,75.96
2023-03-03T04:28:30.771Z,75.91
2023-03-03T04:30:07.117Z,75.72
2023-03-03T04:31:40.930Z,76.06
2023-03-03T04:33:34.179Z,76.01
2023-03-03T04:35:27.832Z,75.76
2023-03-03T04:37:04.256Z,75.89
2023-03-03T04:38:46.807Z,75.71
2023-03-03T04:40:29.810Z,75.88
2023-03-03T04:42:15.835Z,75.90
2023-03-03T04:44:01.755Z,76.05
2023-03-03T04:45:43.572Z,75.69
2023-03-03T04:47:28.691Z,75.81
2023-03-03T04:49:14.219Z,75.76
2023-03-03T04:50:48.879Z,76.24
2023-03-03T04:52:21.888Z,76.13
2023-03-03T04:53:43.972Z,76.04
2023-03-03T04:55:17.499Z,76.10
2023-03-03T04:56:54.117Z,75.97
2023-03-03T04:58:36.822Z,76.01
2023-03-03T05:00:23.597Z,76.01
2023-03-03T05:02:09.118Z,76.31
2023-03-03T05:03:45.205Z,76.31
2023-03-03T05:05:19.268Z,76.20
2023-03-03T05:07:05.071Z,76.27
2023-03-03T05:08:50.606Z,76.32
2023-03-03T05:10:44.254Z,76.34
2023-03-03T05:12:37.826Z,76.35
2023-03-03T05:14:31.697Z,76.52
2023-03-03T05:16:05.844Z,76.65
2023-03-03T05:17:51.584Z,76.42
2023-03-03T05:19:44.181Z,76.37
2023-03-03T05:21:17.921Z,76.61
2023-03-03T05:23:05.025Z,76.50
2023-03-03T05:24:58.343Z,76.35
2023-03-03T05:26:31.948Z,76.34
2023-03-03T05:28:05.319Z,76.46
2023-03-03T05:29:50.389Z,76.26
2023-03-03T05:31:31.500Z,76.41
2023-03-03T05:33:16.705Z,76.86
2023-03-03T05:34:52.502Z,77.00
2023-03-03T05:36:34.022Z,76.56
2023-03-03T05:38:07.714Z,76.96
2023-03-03T05:40:01.217Z,76.92
2023-03-03T05:41:45.082Z,76.90
2023-03-03T05:43:39.684Z,76.70
2023-03-03T05:45:24.933Z,77.07
2023-03-03T05:47:10.002Z,77.01
2023-03-03T05:48:46.098Z,77.02
2023-03-03T05:50:35.455Z,76.86
2023-03-03T05:52:09.281Z,77.04
2023-03-03T05:54:02.889Z,76.96
2023-03-03T05:55:53.682Z,77.03
2023-03-03T05:57:46.950Z,76.89
2023-03-03T05:59:36.703Z,76.79
2023-03-03T06:01:22.069Z,76.81
2023-03-03T06:03:07.483Z,76.82
2023-03-03T06:05:01.775Z,76.73
2023-03-03T06:06:56.782Z,76.52
2023-03-03T06:08:32.736Z,76.50
2023-03-03T06:10:11.332Z,76.48
2023-03-03T06:12:04.748Z,76.51
2023-03-03T06:13:46.139Z,76.83
2023-03-03T06:15:27.179Z,76.69
2023-03-03T06:17:14.267Z,77.04
2023-03-03T06:19:08.554Z,76.81
2023-03-03T06:20:57.890Z,76.78
2023-03-03T06:22:39.620Z,76.80
2023-03-03T06:24:15.750Z,76.91
2023-03-03T06:26:10.500Z,76.71
2023-03-03T06:27:47.182Z,76.76
2023-03-03T06:29:40.596Z,76.37
2023-03-03T06:31:14.700Z,76.59
2023-03-03T06:32:59.844Z,76.96
2023-03-03T06:34:33.818Z,76.49
2023-03-03T06:36:07.375Z,76.94
2023-03-03T06:37:53.724Z,76.83
2023-03-03T06:39:35.718Z,76.74
2023-03-03T06:41:09.861Z,76.91
2023-03-03T06:43:03.838Z,76.64
2023-03-03T06:44:40.374Z,76.62
2023-03-03T06:46:25.454Z,76.52
2023-03-03T06:47:58.517Z,76.55
2023-03-03T06:49:30.309Z,76.68
2023-03-03T06:51:15.836Z,76.74
2023-03-03T06:52:38.244Z,76.82
2023-03-03T06:54:27.319Z,76.93
2023-03-03T06:56:14.850Z,77.27
2023-03-03T06:58:01.244Z,77.30
2023-03-03T06:59:38.100Z,77.23
2023-03-03T07:01:23.297Z,77.44
2023-03-03T07:02:56.976Z,77.47
2023-03-03T07:04:49.807Z,77.57
2023-03-03T07:06:26.976Z,77.42
2023-03-03T07:08:00.144Z,77.25
2023-03-03T07:09:45.617Z,77.18
2023-03-03T07:11:21.466Z,77.44
2023-03-03T07:13:07.187Z,77.57
2023-03-03T07:14:39.198Z,77.31
2023-03-03T07:16:15.115Z,77.42
2023-03-03T07:17:55.607Z,77.31
2023-03-03T07:19:43.718Z,77.15
2023-03-03T07:21:17.676Z,77.19
2023-03-03T07:23:11.544Z,77.26
2023-03-03T07:24:45.118Z,77.12
2023-03-03T07:26:26.511Z,77.12
2023-03-03T07:28:00.175Z,77.07
2023-03-03T07:29:34.311Z,77.08
2023-03-03T07:31:07.740Z,77.02
2023-03-03T07:32:59.167Z,77.10
2023-03-03T07:34:35.626Z,77.04
2023-03-03T07:36:16.765Z,77.05
2023-03-03T07:38:03.320Z,77.00
2023-03-03T07:39:35.278Z,77.04
2023-03-03T07:41:08.608Z,77.06
2023-03-03T07:42:44.559Z,77.31
2023-03-03T07:44:40.351Z,77.08
2023-03-03T07:46:02.937Z,77.35
2023-03-03T07:47:27.799Z,77.40
2023-03-03T07:49:13.109Z,77.31
2023-03-03T07:51:02.212Z,77.47
2023-03-03T07:52:52.686Z,77.31
2023-03-03T07:54:29.399Z,77.39
2023-03-03T07:56:11.007Z,77.13
2023-03-03T07:57:59.841Z,77.24
2023-03-03T07:59:34.581Z,77.24
2023-03-03T08:01:19.652Z,77.37
2023-03-03T08:03:09.379Z,77.18
2023-03-03T08:04:54.792Z,76.96
2023-03-03T08:06:38.252Z,77.06
2023-03-03T08:08:24.346Z,77.10
2023-03-03T08:10:10.175Z,77.44
2023-03-03T08:11:55.723Z,77.37
2023-03-03T08:13:31.786Z,77.40
2023-03-03T08:15:25.225Z,77.37
2023-03-03T08:17:11.563Z,77.26
2023-03-03T08:18:56.172Z,77.49
2023-03-03T08:20:47.353Z,77.15
2023-03-03T08:22:43.644Z,77.34
2023-03-03T08:24:38.573Z,77.13
2023-03-03T08:26:20.552Z,77.34
2023-03-03T08:28:06.265Z,77.20
2023-03-03T08:29:54.461Z,77.00
2023-03-03T08:31:48.532Z,76.57
2023-03-03T08:33:41.825Z,76.81
2023-03-03T08:35:31.101Z,76.90
2023-03-03T08:37:04.289Z,76.56
2023-03-03T08:38:54.605Z,76.79
2023-03-03T08:40:47.976Z,76.68
2023-03-03T08:42:35.496Z,76.82
2023-03-03T08:44:29.610Z,76.76
2023-03-03T08:46:14.998Z,76.72
2023-03-03T08:48:09.261Z,76.42
2023-03-03T08:49:54.644Z,76.28
2023-03-03T08:51:48.612Z,76.11
2023-03-03T08:53:42.602Z,75.98
2023-03-03T08:55:36.821Z,75.71
2023-03-03T08:57:22.529Z,75.40
2023-03-03T08:59:02.212Z,75.28
2023-03-03T09:00:51.150Z,75.66
2023-03-03T09:02:46.116Z,75.52
2023-03-03T09:04:21.949Z,75.56
2023-03-03T09:06:09.509Z,75.46
2023-03-03T09:07:55.666Z,75.47
2023-03-03T09:09:50.705Z,75.63
2023-03-03T09:11:45.740Z,75.54
2023-03-03T09:13:09.347Z,75.37
2023-03-03T09:14:31.550Z,74.65
2023-03-03T09:15:55.827Z,74.36
2023-03-03T09:17:17.895Z,74.22
2023-03-03T09:18:39.744Z,74.41
2023-03-03T09:20:02.836Z,74.20
2023-03-03T09:21:24.545Z,73.83
2023-03-03T09:22:46.604Z,73.97
2023-03-03T09:24:08.814Z,73.87
2023-03-03T09:25:42.370Z,73.58
2023-03-03T09:27:16.252Z,73.84
2023-03-03T09:29:02.249Z,73.57
2023-03-03T09:30:23.990Z,73.12
2023-03-03T09:32:02.181Z,73.09
2023-03-03T09:33:39.302Z,72.84
2023-03-03T09:35:11.668Z,72.41
2023-03-03T09:36:33.686Z,72.59
2023-03-03T09:38:05.680Z,72.80
2023-03-03T09:39:41.611Z,73.05
2023-03-03T09:41:15.366Z,73.06
2023-03-03T09:42:51.446Z,72.73
2023-03-03T09:44:28.959Z,72.76
2023-03-03T09:46:04.835Z,72.24
2023-03-03T09:47:59.685Z,72.40
2023-03-03T09:49:33.212Z,72.26
2023-03-03T09:51:09.323Z,71.73
2023-03-03T09:53:01.297Z,71.74
2023-03-03T09:54:56.623Z,71.10
2023-03-03T09:56:51.033Z,71.32
2023-03-03T09:58:31.659Z,71.03
2023-03-03T10:00:17.791Z,71.00
2023-03-03T10:01:42.284Z,70.76
2023-03-03T10:03:29.725Z,70.97
2023-03-03T10:05:16.601Z,70.91
2023-03-03T10:07:01.734Z,71.04
2023-03-03T10:08:42.941Z,71.16
2023-03-03T10:10:07.813Z,71.47
2023-03-03T10:11:52.573Z,71.34
2023-03-03T10:13:34.384Z,71.22
2023-03-03T10:15:19.943Z,70.41
2023-03-03T10:17:04.790Z,70.20
2023-03-03T10:18:58.432Z,70.30
2023-03-03T10:20:37.480Z,70.56
2023-03-03T10:22:21.700Z,70.52
2023-03-03T10:24:07.616Z,70.95
2023-03-03T10:26:01.255Z,70.80
2023-03-03T10:27:34.762Z,71.03
2023-03-03T10:29:08.620Z,70.57
2023-03-03T10:30:54.573Z,70.33
2023-03-03T10:32:45.516Z,70.10
2023-03-03T10:34:30.781Z,70.23
2023-03-03T10:36:13.247Z,70.20
2023-03-03T10:37:35.643Z,70.11
2023-03-03T10:39:11.657Z,70.29
2023-03-03T10:41:00.376Z,70.41
2023-03-03T10:42:46.541Z,70.62
2023-03-03T10:44:32.668Z,70.67
2023-03-03T10:46:18.202Z,70.78
2023-03-03T10:47:53.061Z,70.39
2023-03-03T10:49:46.736Z,70.13
2023-03-03T10:51:27.992Z,70.51
2023-03-03T10:53:02.139Z,70.53
2023-03-03T10:54:35.938Z,70.68
2023-03-03T10:56:17.286Z,70.84
2023-03-03T10:58:06.196Z,71.12
2023-03-03T10:59:35.753Z,71.07
2023-03-03T11:01:12.428Z,71.06
2023-03-03T11:02:59.808Z,71.11
2023-03-03T11:04:33.410Z,71.01
2023-03-03T11:06:07.801Z,70.95
2023-03-03T11:07:59.707Z,70.92
2023-03-03T11:09:42.194Z,70.60
2023-03-03T11:11:17.878Z,70.58
2023-03-03T11:13:06.540Z,70.61
2023-03-03T11:14:53.431Z,70.83
2023-03-03T11:16:37.373Z,70.96
2023-03-03T11:18:25.789Z,70.41
2023-03-03T11:20:11.616Z,70.27
2023-03-03T11:21:47.016Z,69.86
2023-03-03T11:23:18.278Z,70.05
2023-03-03T11:25:03.572Z,70.16
2023-03-03T11:26:57.517Z,70.16
2023-03-03T11:28:31.199Z,70.44
2023-03-03T11:30:16.253Z,70.56
2023-03-03T11:32:02.316Z,70.75
2023-03-03T11:33:57.577Z,70.71
2023-03-03T11:35:34.117Z,70.74
2023-03-03T11:37:07.705Z,70.64
2023-03-03T11:38:53.569Z,70.68
2023-03-03T11:40:27.611Z,70.79
2023-03-03T11:42:09.713Z,70.84
2023-03-03T11:43:43.947Z,70.89
2023-03-03T11:45:13.566Z,71.05
2023-03-03T11:46:45.754Z,71.48
2023-03-03T11:48:08.997Z,71.66
2023-03-03T11:49:54.172Z,71.88
2023-03-03T11:51:31.501Z,71.53
2023-03-03T11:53:16.639Z,71.34
2023-03-03T11:54:50.748Z,71.43
2023-03-03T11:56:27.023Z,71.46
2023-03-03T11:58:08.890Z,71.58
2023-03-03T11:59:50.415Z,71.59
2023-03-03T12:01:12.785Z,71.92
2023-03-03T12:03:06.440Z,72.01
2023-03-03T12:04:42.454Z,72.36
2023-03-03T12:06:06.376Z,72.41
2023-03-03T12:07:48.883Z,72.70
2023-03-03T12:09:30.253Z,72.45
2023-03-03T12:11:15.288Z,72.44
2023-03-03T12:12:49.625Z,72.24
2023-03-03T12:14:35.070Z,71.91
2023-03-03T12:16:16.219Z,72.16
2023-03-03T12:17:50.716Z,72.39
2023-03-03T12:19:27.670Z,72.43
2023-03-03T12:21:14.156Z,72.44
2023-03-03T12:23:06.474Z,72.31
2023-03-03T12:24:41.432Z,72.65
2023-03-03T12:26:26.726Z,72.55
2023-03-03T12:28:14.192Z,72.62
2023-03-03T12:29:38.854Z,72.68
2023-03-03T12:31:14.774Z,72.73
2023-03-03T12:33:09.595Z,72.95
2023-03-03T12:37:03.686Z,73.38
2023-03-03T12:38:57.260Z,73.24
2023-03-03T12:40:21.818Z,73.19
2023-03-03T12:42:11.016Z,73.36
2023-03-03T12:43:51.823Z,73.53
2023-03-03T12:45:40.152Z,73.71
2023-03-03T12:47:30.306Z,73.83
2023-03-03T12:49:15.508Z,73.89
2023-03-03T12:51:02.211Z,74.04
2023-03-03T12:52:43.190Z,73.77
2023-03-03T12:54:19.039Z,73.71
2023-03-03T12:56:04.007Z,73.62
2023-03-03T12:57:49.330Z,74.04
2023-03-03T12:59:43.396Z,73.87
2023-03-03T13:01:16.788Z,74.19
2023-03-03T13:02:59.119Z,74.17
2023-03-03T13:04:23.253Z,74.54
2023-03-03T13:06:04.017Z,74.47
2023-03-03T13:07:38.208Z,74.52
2023-03-03T13:09:24.077Z,74.43
2023-03-03T13:11:10.241Z,74.19
2023-03-03T13:12:55.960Z,74.49
2023-03-03T13:14:17.810Z,74.36
2023-03-03T13:16:06.137Z,74.43
2023-03-03T13:17:49.508Z,74.56
2023-03-03T13:19:25.574Z,74.81
2023-03-03T13:21:11.637Z,74.95
2023-03-03T13:22:57.716Z,75.04
2023-03-03T13:24:43.999Z,75.02
2023-03-03T13:26:30.835Z,75.33
2023-03-03T13:28:08.644Z,75.02
2023-03-03T13:30:58.360Z,74.99
2023-03-03T13:32:53.290Z,75.32
2023-03-03T13:34:46.537Z,75.42
2023-03-03T13:36:40.075Z,75.49
2023-03-03T13:38:26.197Z,75.76
2023-03-03T13:40:08.530Z,75.71
2023-03-03T13:41:50.297Z,75.47
2023-03-03T13:43:26.514Z,75.53
2023-03-03T13:45:12.350Z,75.80
2023-03-03T13:47:06.131Z,76.03
2023-03-03T13:48:49.968Z,76.14
2023-03-03T13:50:35.700Z,76.41
2023-03-03T13:52:24.620Z,76.43
2023-03-03T13:53:58.218Z,76.17
2023-03-03T13:55:21.624Z,76.23
2023-03-03T13:57:03.892Z,76.57
2023-03-03T13:58:41.036Z,76.58
2023-03-03T14:00:05.518Z,76.77
2023-03-03T14:01:41.483Z,76.73
2023-03-03T14:03:03.412Z,76.68
2023-03-03T14:04:33.171Z,76.75
2023-03-03T14:05:57.384Z,76.91
2023-03-03T14:07:52.565Z,76.92
2023-03-03T14:09:42.591Z,76.87
2023-03-03T14:11:15.991Z,76.71
2023-03-03T14:12:57.889Z,77.06
2023-03-03T14:14:33.512Z,76.98
2023-03-03T14:16:07.194Z,77.19
2023-03-03T14:17:41.072Z,77.49
2023-03-03T14:19:27.639Z,77.48
2023-03-03T14:21:13.398Z,77.00
2023-03-03T14:23:01.881Z,77.04
2023-03-03T14:24:47.593Z,76.83
2023-03-03T14:26:23.515Z,76.51
2023-03-03T14:28:09.282Z,76.57
2023-03-03T14:30:04.670Z,76.87
2023-03-03T14:31:47.205Z,76.88
2023-03-03T14:33:41.005Z,77.29
2023-03-03T14:35:26.437Z,77.16
2023-03-03T14:37:12.262Z,77.31
2023-03-03T14:38:58.869Z,77.41
2023-03-03T14:40:53.710Z,77.27
2023-03-03T14:42:36.600Z,77.56
2023-03-03T14:44:31.579Z,77.48
2023-03-03T14:46:16.637Z,77.77
2023-03-03T14:47:51.487Z,77.66
2023-03-03T14:49:24.986Z,77.91
2023-03-03T14:51:08.569Z,78.03
2023-03-03T14:53:02.466Z,78.29
2023-03-03T14:54:48.387Z,78.34
2023-03-03T14:56:35.526Z,78.22
2023-03-03T14:58:22.628Z,78.26
2023-03-03T15:00:07.989Z,78.19
2023-03-03T15:01:44.654Z,78.16
2023-03-03T15:03:18.537Z,77.96
2023-03-03T15:04:52.000Z,78.01
2023-03-03T15:06:25.704Z,78.34
2023-03-03T15:08:10.526Z,78.48
2023-03-03T15:09:55.651Z,78.11
2023-03-03T15:11:37.040Z,77.78
2023-03-03T15:13:11.120Z,78.04
2023-03-03T15:14:56.746Z,77.86
2023-03-03T15:16:30.316Z,78.03
2023-03-03T15:18:15.204Z,77.87
2023-03-03T15:20:06.627Z,77.73
2023-03-03T15:21:40.079Z,77.98
2023-03-03T15:23:01.928Z,78.10
2023-03-03T15:24:56.617Z,78.15
2023-03-03T15:26:20.926Z,77.95
2023-03-03T15:28:06.252Z,78.05
2023-03-03T15:29:51.567Z,77.65
2023-03-03T15:31:45.125Z,77.63
2023-03-03T15:33:30.512Z,77.53
2023-03-03T15:35:14.332Z,77.49
2023-03-03T15:37:00.542Z,77.68
2023-03-03T15:38:46.576Z,77.57
2023-03-03T15:40:28.565Z,77.56
2023-03-03T15:42:02.312Z,77.78
2023-03-03T15:43:48.573Z,77.78
2023-03-03T15:45:41.898Z,77.96
2023-03-03T15:47:35.504Z,78.25
2023-03-03T15:49:16.178Z,77.86
2023-03-03T15:50:50.610Z,77.90
2023-03-03T15:52:33.339Z,78.07
2023-03-03T15:54:26.926Z,78.05
2023-03-03T15:56:11.926Z,78.01
2023-03-03T15:57:50.117Z,77.97
2023-03-03T15:59:35.671Z,77.89
2023-03-03T16:01:22.456Z,78.11
2023-03-03T16:03:07.821Z,78.07
2023-03-03T16:04:51.564Z,78.10
2023-03-03T16:06:46.619Z,77.78
2023-03-03T16:08:20.230Z,77.80
2023-03-03T16:09:53.950Z,78.16
2023-03-03T16:11:28.537Z,78.38
2023-03-03T16:13:13.985Z,78.75
2023-03-03T16:14:59.641Z,78.54
2023-03-03T16:16:28.923Z,78.74
2023-03-03T16:18:13.842Z,79.01
2023-03-03T16:19:47.940Z,78.93
2023-03-03T16:21:17.824Z,78.61
2023-03-03T16:23:09.151Z,78.64
2023-03-03T16:24:45.902Z,78.78
2023-03-03T16:26:10.005Z,78.79
2023-03-03T16:27:51.069Z,78.56
2023-03-03T16:29:44.523Z,78.25
2023-03-03T16:31:18.327Z,78.06
2023-03-03T16:33:04.581Z,78.07
2023-03-03T16:34:43.087Z,78.19
2023-03-03T16:36:04.721Z,78.20
2023-03-03T16:37:50.566Z,78.15
2023-03-03T16:39:31.507Z,78.10
2023-03-03T16:41:16.842Z,78.19
2023-03-03T16:42:52.605Z,78.33
2023-03-03T16:44:24.417Z,78.02
2023-03-03T16:46:06.284Z,78.25
2023-03-03T16:47:40.653Z,78.12
2023-03-03T16:49:14.197Z,78.02
2023-03-03T16:50:56.132Z,77.95
2023-03-03T16:52:31.371Z,77.97
2023-03-03T16:54:04.826Z,77.83
2023-03-03T16:55:38.497Z,77.66
2023-03-03T16:57:02.777Z,77.83
2023-03-03T16:58:58.596Z,77.67
2023-03-03T17:00:53.574Z,77.58
2023-03-03T17:02:27.261Z,77.54
2023-03-03T17:04:03.530Z,77.27
2023-03-03T17:05:45.049Z,77.03
2023-03-03T17:07:11.333Z,77.12
2023-03-03T17:11:20.618Z,76.82
2023-03-03T17:13:05.414Z,76.67
2023-03-03T17:14:27.654Z,76.93
2023-03-03T17:16:08.500Z,77.09
2023-03-03T17:20:19.455Z,76.75
2023-03-03T17:21:43.550Z,76.73
2023-03-03T17:23:28.855Z,76.77
2023-03-03T17:25:09.499Z,76.66
2023-03-03T17:26:53.988Z,76.83
2023-03-03T17:28:29.172Z,76.69
2023-03-03T17:30:05.760Z,76.68
2023-03-03T17:31:39.267Z,76.69
2023-03-03T17:33:24.595Z,76.28
2023-03-03T17:35:09.408Z,76.34
2023-03-03T17:36:57.489Z,76.33
2023-03-03T17:38:45.924Z,76.32
2023-03-03T17:40:39.578Z,76.53
2023-03-03T17:42:24.724Z,76.41
2023-03-03T17:44:10.590Z,76.52
2023-03-03T17:45:59.264Z,76.35
2023-03-03T17:47:41.070Z,76.29
2023-03-03T17:49:21.704Z,75.96
2023-03-03T17:51:05.276Z,75.90
2023-03-03T17:52:31.575Z,75.88
2023-03-03T17:54:07.567Z,75.92
2023-03-03T17:55:36.656Z,76.05
2023-03-03T17:57:03.112Z,75.86
2023-03-03T17:58:48.864Z,75.68
2023-03-03T18:00:29.151Z,75.56
2023-03-03T18:01:58.510Z,75.47
2023-03-03T18:03:34.251Z,75.92
2023-03-03T18:05:08.042Z,76.03
2023-03-03T18:06:44.274Z,76.03
2023-03-03T18:08:30.498Z,75.77
2023-03-03T18:10:00.307Z,75.62
2023-03-03T18:11:22.128Z,75.61
2023-03-03T18:13:03.081Z,75.70
2023-03-03T18:14:37.020Z,75.31
2023-03-03T18:16:12.398Z,75.39
2023-03-03T18:18:07.628Z,75.45
2023-03-03T18:19:58.569Z,75.72
2023-03-03T18:21:50.573Z,75.63
2023-03-03T18:23:34.349Z,75.74
2023-03-03T18:25:07.637Z,75.83
2023-03-03T18:26:56.443Z,75.81
2023-03-03T18:28:18.686Z,75.47
2023-03-03T18:30:03.791Z,75.66
2023-03-03T18:31:54.272Z,75.71
2023-03-03T18:33:26.439Z,76.11
2023-03-03T18:35:03.302Z,75.78
2023-03-03T18:36:53.612Z,75.95
2023-03-03T18:38:34.864Z,75.95
2023-03-03T18:40:08.596Z,75.77
2023-03-03T18:41:55.201Z,75.56
2023-03-03T18:43:28.675Z,75.35
2023-03-03T18:44:55.067Z,75.88
2023-03-03T18:46:19.185Z,75.77
2023-03-03T18:48:04.077Z,75.57
2023-03-03T18:49:25.976Z,75.80
2023-03-03T18:51:01.634Z,75.50
2023-03-03T18:52:43.564Z,75.73
2023-03-03T18:54:17.238Z,76.04
2023-03-03T18:55:46.958Z,76.06
2023-03-03T18:57:11.171Z,76.00
2023-03-03T18:58:44.983Z,75.61
2023-03-03T19:00:26.657Z,75.68
2023-03-03T19:02:04.418Z,75.73
2023-03-03T19:03:45.504Z,75.64
2023-03-03T19:05:07.469Z,75.56
2023-03-03T19:06:43.663Z,75.66
2023-03-03T19:08:28.900Z,75.49
2023-03-03T19:10:14.469Z,75.67
2023-03-03T19:11:56.852Z,75.72
2023-03-03T19:13:33.581Z,75.64
2023-03-03T19:15:06.760Z,75.56
2023-03-03T19:16:52.446Z,75.44
2023-03-03T19:18:21.370Z,75.46
2023-03-03T19:20:06.421Z,75.55
2023-03-03T19:21:53.133Z,75.50
2023-03-03T19:23:22.194Z,75.67
2023-03-03T19:25:06.296Z,75.67
2023-03-03T19:26:52.040Z,75.51
2023-03-03T19:28:46.654Z,75.44
2023-03-03T19:30:23.890Z,75.60
2023-03-03T19:31:59.831Z,75.65
2023-03-03T19:33:57.105Z,75.53
2023-03-03T19:35:40.690Z,75.61
2023-03-03T19:37:26.417Z,75.92
2023-03-03T19:39:00.208Z,75.99
2023-03-03T19:40:58.218Z,75.74
2023-03-03T19:42:34.225Z,75.32
2023-03-03T19:44:19.296Z,75.28
2023-03-03T19:46:04.457Z,75.43
2023-03-03T19:47:38.177Z,75.68
2023-03-03T19:49:11.742Z,75.66
2023-03-03T19:50:54.529Z,75.74
2023-03-03T19:52:38.040Z,75.93
2023-03-03T19:54:23.320Z,75.86
2023-03-03T19:56:08.029Z,75.61
2023-03-03T19:57:56.514Z,75.80
2023-03-03T19:59:28.491Z,75.70
2023-03-03T20:01:13.673Z,75.72
2023-03-03T20:02:59.497Z,75.81
2023-03-03T20:04:54.584Z,75.86
2023-03-03T20:06:40.354Z,76.19
2023-03-03T20:08:16.713Z,76.22
2023-03-03T20:09:53.339Z,76.16
2023-03-03T20:11:38.534Z,75.90
2023-03-03T20:13:12.106Z,75.89
2023-03-03T20:14:57.840Z,75.85
2023-03-03T20:16:42.668Z,75.79
2023-03-03T20:18:27.288Z,76.01
2023-03-03T20:19:58.869Z,75.94
2023-03-03T20:21:33.094Z,75.89
2023-03-03T20:23:18.077Z,75.88
2023-03-03T20:24:51.993Z,75.83
2023-03-03T20:26:35.576Z,75.71
2023-03-03T20:28:30.572Z,75.68
2023-03-03T20:30:11.339Z,75.80
2023-03-03T20:31:58.972Z,75.71
2023-03-03T20:33:48.258Z,75.93
2023-03-03T20:35:25.560Z,75.86
2023-03-03T20:37:06.402Z,75.71
2023-03-03T20:38:42.319Z,75.73
2023-03-03T20:40:27.445Z,75.37
2023-03-03T20:42:12.203Z,75.44
2023-03-03T20:43:45.792Z,75.43
2023-03-03T20:45:21.301Z,75.70
2023-03-03T20:47:01.913Z,75.73
2023-03-03T20:48:56.529Z,75.75
2023-03-03T20:50:37.574Z,76.03
2023-03-03T20:52:10.891Z,75.96
2023-03-03T20:53:47.564Z,75.81
2023-03-03T20:55:41.142Z,75.71
2023-03-03T20:57:05.300Z,75.68
2023-03-03T20:58:29.575Z,75.94
2023-03-03T20:59:53.563Z,75.83
2023-03-03T21:01:30.542Z,76.01
2023-03-03T21:03:06.205Z,75.99
2023-03-03T21:04:30.735Z,75.99
2023-03-03T21:06:15.675Z,75.70
2023-03-03T21:08:09.171Z,75.57
2023-03-03T21:10:01.444Z,75.45
2023-03-03T21:11:56.564Z,75.54
2023-03-03T21:13:37.169Z,75.61
2023-03-03T21:15:12.696Z,75.76
2023-03-03T21:16:53.957Z,76.06
2023-03-03T21:18:30.035Z,75.82
2023-03-03T21:20:10.763Z,75.82
2023-03-03T21:22:00.823Z,75.77
2023-03-03T21:23:47.057Z,75.89
2023-03-03T21:25:20.438Z,75.76
2023-03-03T21:26:51.919Z,75.54
2023-03-03T21:28:27.349Z,75.46
2023-03-03T21:30:00.611Z,75.54
2023-03-03T21:31:43.551Z,75.71
2023-03-03T21:33:37.051Z,75.85
2023-03-03T21:35:10.751Z,75.43
2023-03-03T21:36:44.522Z,75.61
2023-03-03T21:38:20.575Z,75.61
2023-03-03T21:40:05.701Z,75.79
2023-03-03T21:41:51.013Z,75.68
2023-03-03T21:43:31.776Z,75.88
2023-03-03T21:45:01.023Z,75.92
2023-03-03T21:46:34.624Z,75.66
2023-03-03T21:48:00.677Z,75.65